Time;durP1;ratioP1;P1;durP2;ratioP2;P2;SDS_P1;SDS_P2;PMS_P1;PMS_P2;Temp;Humidity;BMP_temperature;BMP_pressure;BME280_temperature;BME280_humidity;BME280_pressure;Samples;Min_cycle;Max_cycle;Signal;HPM_P1;HPM_P2
2022/08/01 00:00:03;;;;;;;2.03;0.63;;;;;;;18.03;55.12;100471.09;4968092;28;20113;-47
2022/08/01 00:02:30;;;;;;;1.85;0.52;;;;;;;17.98;55.44;100474.69;4969550;28;20589;-47
2022/08/01 00:04:57;;;;;;;2.55;0.70;;;;;;;17.94;55.63;100483.50;4968125;28;20038;-45
2022/08/01 00:07:24;;;;;;;2.50;0.60;;;;;;;17.90;55.52;100481.88;4970098;28;20046;-45
2022/08/01 00:09:51;;;;;;;2.35;0.77;;;;;;;17.85;55.22;100483.78;4971330;28;20113;-46
2022/08/01 00:12:17;;;;;;;2.38;0.68;;;;;;;17.81;55.15;100492.63;4966502;28;20050;-44
2022/08/01 00:14:44;;;;;;;2.80;0.60;;;;;;;17.76;55.53;100494.50;4970385;28;20113;-44
2022/08/01 00:17:11;;;;;;;2.20;0.70;;;;;;;17.70;55.51;100493.75;4969277;28;20054;-43
2022/08/01 00:19:37;;;;;;;4.05;0.80;;;;;;;17.71;55.25;100502.47;4967409;28;20055;-48
2022/08/01 00:22:04;;;;;;;3.88;0.55;;;;;;;17.71;55.56;100498.09;4971811;28;20665;-42
2022/08/01 00:24:31;;;;;;;1.70;0.60;;;;;;;17.72;55.58;100498.94;4969312;28;20483;-41
2022/08/01 00:26:58;;;;;;;1.50;0.60;;;;;;;17.73;55.58;100496.28;4969914;28;20047;-43
2022/08/01 00:29:24;;;;;;;1.98;0.68;;;;;;;17.71;56.46;100503.34;4967763;28;20055;-48
2022/08/01 00:32:11;;;;;;;4.80;1.90;;;;;;;17.70;56.54;100503.38;4972454;28;20550;-45
2022/08/01 00:34:37;;;;;;;2.13;0.90;;;;;;;17.68;55.82;100498.16;4970043;28;20072;-42
2022/08/01 00:37:04;;;;;;;3.40;1.48;;;;;;;17.70;56.39;100503.38;4969762;28;20614;-45
2022/08/01 00:39:32;;;;;;;2.45;0.80;;;;;;;17.67;55.89;100504.28;4970769;28;20074;-47
2022/08/01 00:42:06;;;;;;;4.50;0.77;;;;;;;17.64;55.96;100501.78;4965758;28;20055;-42
2022/08/01 00:44:33;;;;;;;2.13;0.50;;;;;;;17.61;55.77;100512.31;4973679;28;20098;-45
2022/08/01 00:47:00;;;;;;;3.33;0.98;;;;;;;17.56;56.59;100508.97;4973614;28;20055;-46
2022/08/01 00:49:27;;;;;;;2.38;0.60;;;;;;;17.52;55.99;100523.00;4973491;28;20054;-41
2022/08/01 00:51:54;;;;;;;3.47;0.65;;;;;;;17.47;56.43;100515.28;4974040;28;20145;-44
2022/08/01 00:54:23;;;;;;;3.53;0.60;;;;;;;17.45;56.21;100520.53;4973100;28;20043;-46
2022/08/01 00:56:50;;;;;;;2.55;1.10;;;;;;;17.46;56.44;100517.03;4970646;28;20050;-45
2022/08/01 00:59:17;;;;;;;3.50;0.80;;;;;;;17.46;56.66;100509.16;4972694;28;20050;-43
2022/08/01 01:01:46;;;;;;;4.70;1.15;;;;;;;17.45;56.63;100507.44;4972094;28;20047;-47
2022/08/01 01:04:16;;;;;;;;;;;;;;;17.23;56.89;100506.25;4973632;28;20058;-45
2022/08/01 01:09:32;;;;;;;2.00;1.15;;;;;;;17.34;56.26;100499.00;5023325;27;20388;-47
2022/08/01 01:17:31;;;;;;;4.40;1.88;;;;;;;17.69;55.59;100494.66;5028156;28;20400;-45
2022/08/01 01:20:18;;;;;;;2.53;1.38;;;;;;;17.35;56.55;100495.47;5002781;28;20081;-43
2022/08/01 01:22:57;;;;;;;6.13;1.10;;;;;;;17.30;56.82;100502.59;5002509;28;20567;-44
2022/08/01 01:30:48;;;;;;;4.32;1.90;;;;;;;17.31;57.74;100501.69;5086439;27;20382;-42
2022/08/01 01:33:19;;;;;;;5.90;1.10;;;;;;;17.31;56.95;100499.94;5040111;28;20048;-43
2022/08/01 01:35:48;;;;;;;2.35;0.82;;;;;;;17.32;57.03;100498.16;5041460;28;20103;-43
2022/08/01 01:38:20;;;;;;;5.47;0.95;;;;;;;17.33;57.36;100492.03;5030525;28;20647;-42
2022/08/01 01:40:48;;;;;;;2.58;1.45;;;;;;;17.31;57.53;100483.34;5036587;28;20049;-41
2022/08/01 01:43:16;;;;;;;3.47;1.00;;;;;;;17.29;56.87;100479.94;5029394;28;20537;-41
2022/08/01 01:45:45;;;;;;;3.30;1.25;;;;;;;17.28;57.55;100491.28;5035968;28;20053;-42
2022/08/01 01:48:15;;;;;;;2.42;0.73;;;;;;;17.26;56.92;100493.09;5038210;28;20046;-42
2022/08/01 01:50:44;;;;;;;4.22;0.80;;;;;;;17.26;57.68;100487.84;5020612;28;20049;-41
2022/08/01 01:53:13;;;;;;;4.75;1.15;;;;;;;17.24;57.93;100497.47;5021807;28;20050;-45
2022/08/01 01:55:43;;;;;;;2.70;0.98;;;;;;;17.20;57.93;100497.53;5018528;28;20176;-46
2022/08/01 01:58:17;;;;;;;1.83;0.93;;;;;;;17.16;57.31;100495.91;5042180;28;20080;-43
2022/08/01 02:00:46;;;;;;;2.78;0.77;;;;;;;17.13;57.49;100490.75;5060959;28;20044;-41
2022/08/01 02:03:14;;;;;;;5.38;0.93;;;;;;;17.12;57.13;100489.00;5041514;28;20057;-43
2022/08/01 02:05:42;;;;;;;3.95;0.90;;;;;;;17.10;57.62;100485.59;5042891;28;20052;-44
2022/08/01 02:08:11;;;;;;;3.45;1.02;;;;;;;17.08;57.36;100487.38;5027169;28;20045;-42
2022/08/01 02:10:39;;;;;;;4.30;0.82;;;;;;;17.07;57.47;100493.50;5028922;28;20685;-44
2022/08/01 02:13:07;;;;;;;2.45;0.80;;;;;;;17.04;57.94;100494.41;5032732;28;20053;-44
2022/08/01 02:15:38;;;;;;;3.97;0.70;;;;;;;17.04;57.25;100497.03;5039913;28;20152;-43
2022/08/01 02:18:25;;;;;;;4.93;1.45;;;;;;;17.01;57.12;100496.22;5032754;28;20138;-44
2022/08/01 02:20:54;;;;;;;2.10;1.33;;;;;;;16.99;57.81;100498.88;5032482;28;20100;-42
2022/08/01 02:23:24;;;;;;;3.00;0.85;;;;;;;16.96;57.17;100505.03;5028068;28;20046;-40
2022/08/01 02:25:53;;;;;;;6.03;1.20;;;;;;;16.93;57.65;100499.00;5033206;28;20465;-43
2022/08/01 02:28:45;;;;;;;4.50;0.80;;;;;;;16.89;57.81;100499.97;5037725;28;20402;-44
2022/08/01 02:31:16;;;;;;;3.70;0.80;;;;;;;16.88;57.37;100506.97;5020911;28;20457;-41
2022/08/01 02:33:52;;;;;;;4.03;1.08;;;;;;;16.86;57.09;100502.66;5036377;28;20075;-43
2022/08/01 02:36:20;;;;;;;3.15;0.85;;;;;;;16.83;57.87;100498.34;5027094;28;20442;-45
2022/08/01 02:39:01;;;;;;;4.93;1.10;;;;;;;16.80;57.36;100494.06;5030508;28;20048;-43
2022/08/01 02:41:30;;;;;;;3.38;0.60;;;;;;;16.79;57.44;100501.94;5008185;28;20062;-42
2022/08/01 02:44:01;;;;;;;3.58;0.88;;;;;;;16.79;58.11;100499.31;5026839;28;20053;-42
2022/08/01 02:46:34;;;;;;;2.72;1.20;;;;;;;16.77;57.71;100499.34;5025291;28;20105;-42
2022/08/01 02:49:03;;;;;;;3.33;1.05;;;;;;;16.75;57.60;100500.28;5067542;28;20048;-40
2022/08/01 02:51:32;;;;;;;2.33;0.90;;;;;;;16.72;57.72;100497.72;5067982;28;20052;-41
2022/08/01 02:54:01;;;;;;;4.22;0.90;;;;;;;16.68;57.79;100489.94;5068323;28;20480;-41
2022/08/01 02:56:34;;;;;;;2.78;1.45;;;;;;;16.67;57.93;100489.97;5065086;28;20052;-44
2022/08/01 02:59:05;;;;;;;3.35;0.80;;;;;;;16.63;57.46;100483.94;5065272;28;20044;-44
2022/08/01 03:01:34;;;;;;;4.55;1.00;;;;;;;16.62;57.72;100500.50;5059448;28;20045;-42
2022/08/01 03:04:04;;;;;;;1.70;1.17;;;;;;;16.58;57.74;100493.63;5052470;28;20048;-47
2022/08/01 03:06:32;;;;;;;;;;;;;;;16.36;58.31;100498.44;5060920;28;20064;-42
2022/08/01 03:09:02;;;;;;;2.45;1.38;;;;;;;16.50;58.22;100500.78;5062020;28;19982;-44
2022/08/01 03:11:30;;;;;;;2.35;1.13;;;;;;;16.47;57.81;100495.59;5054701;28;20579;-44
2022/08/01 03:14:01;;;;;;;5.72;0.73;;;;;;;16.48;58.06;100499.97;5044151;28;20114;-44
2022/08/01 03:16:31;;;;;;;3.45;1.98;;;;;;;16.44;57.87;100497.41;5064936;28;20094;-44
2022/08/01 03:18:58;;;;;;;;;;;;;;;16.24;58.58;100486.47;5066233;28;20044;-45
2022/08/01 03:21:26;;;;;;;3.85;1.35;;;;;;;16.34;58.40;100495.00;5063377;28;19921;-44
2022/08/01 03:23:56;;;;;;;4.40;1.23;;;;;;;16.31;58.78;100495.91;5062746;28;20110;-45
2022/08/01 03:26:28;;;;;;;3.13;1.00;;;;;;;16.28;58.31;100486.38;5065521;28;20113;-41
2022/08/01 03:29:06;;;;;;;4.55;1.00;;;;;;;16.27;58.66;100494.25;5060850;28;20044;-44
2022/08/01 03:31:35;;;;;;;4.80;1.17;;;;;;;16.25;58.69;100502.09;5045910;28;20060;-42
2022/08/01 03:34:03;;;;;;;2.95;1.02;;;;;;;16.23;58.87;100492.59;5067691;28;20044;-45
2022/08/01 03:36:37;;;;;;;4.28;0.90;;;;;;;16.22;58.73;100496.09;5063860;28;20213;-49
2022/08/01 03:39:06;;;;;;;2.80;0.95;;;;;;;16.20;58.88;100498.72;5037909;28;20091;-45
2022/08/01 03:41:39;;;;;;;3.30;0.85;;;;;;;16.16;58.51;100500.56;5056686;28;20072;-43
2022/08/01 03:44:13;;;;;;;3.60;0.60;;;;;;;16.14;58.91;100499.72;5041992;28;20053;-45
2022/08/01 03:46:45;;;;;;;2.28;0.80;;;;;;;16.14;58.59;100494.47;5063933;28;20044;-44
2022/08/01 03:49:21;;;;;;;4.93;1.00;;;;;;;16.13;59.11;100498.00;5047954;28;20040;-41
2022/08/01 03:51:50;;;;;;;4.78;1.10;;;;;;;16.16;59.05;100494.47;5030018;28;20106;-45
2022/08/01 03:54:23;;;;;;;4.63;1.15;;;;;;;16.14;58.39;100491.88;5056303;28;20067;-44
2022/08/01 03:56:51;;;;;;;5.35;0.82;;;;;;;16.14;59.39;100493.63;5033283;28;20124;-46
2022/08/01 03:59:20;;;;;;;4.38;1.55;;;;;;;16.13;59.14;100492.78;5065509;28;20049;-42
2022/08/01 04:01:47;;;;;;;7.07;1.20;;;;;;;16.13;58.96;100490.16;5033917;28;20049;-48
2022/08/01 04:04:14;;;;;;;6.18;1.33;;;;;;;16.14;59.12;100497.09;5046351;28;20514;-44
2022/08/01 04:06:43;;;;;;;5.10;0.90;;;;;;;16.16;59.06;100497.06;5060891;28;20053;-41
2022/08/01 04:09:11;;;;;;;2.17;0.80;;;;;;;16.14;59.52;100497.09;5060203;28;20060;-45
2022/08/01 04:11:40;;;;;;;3.55;1.02;;;;;;;16.13;59.07;100497.13;5065274;28;20045;-44
2022/08/01 04:14:07;;;;;;;4.75;1.67;;;;;;;16.11;59.15;100499.75;5063139;28;20503;-42
2022/08/01 04:16:35;;;;;;;4.20;1.08;;;;;;;16.12;59.19;100495.41;5057832;28;20127;-45
2022/08/01 04:19:02;;;;;;;5.10;1.00;;;;;;;16.10;58.88;100498.03;5056290;28;20056;-41
2022/08/01 04:21:32;;;;;;;4.70;1.40;;;;;;;16.11;59.76;100499.75;5027166;28;20399;-46
2022/08/01 04:24:03;;;;;;;;;;;;;;;15.93;59.38;100493.97;5064529;28;20508;-43
2022/08/01 04:26:32;;;;;;;3.25;0.90;;;;;;;16.09;59.20;100496.34;5059010;28;19968;-45
2022/08/01 04:29:02;;;;;;;3.90;1.02;;;;;;;16.12;59.37;100493.66;5055838;28;20500;-45
2022/08/01 04:31:30;;;;;;;3.00;1.23;;;;;;;16.14;59.39;100493.63;5066756;28;20629;-45
2022/08/01 04:34:00;;;;;;;4.95;0.85;;;;;;;16.16;59.08;100497.94;5061796;28;20051;-45
2022/08/01 04:36:30;;;;;;;4.15;1.60;;;;;;;16.17;59.74;100501.41;5031616;28;20494;-42
2022/08/01 04:39:00;;;;;;;6.63;2.33;;;;;;;16.18;59.08;100493.53;5062744;28;20118;-45
2022/08/01 04:41:29;;;;;;;3.78;0.80;;;;;;;16.22;58.98;100493.47;5049744;28;20522;-42
2022/08/01 04:43:59;;;;;;;6.18;1.00;;;;;;;16.22;59.75;100496.09;5040259;28;20056;-44
2022/08/01 04:46:28;;;;;;;5.88;1.35;;;;;;;16.23;59.44;100503.03;5058153;28;20074;-43
2022/08/01 04:48:55;;;;;;;2.30;0.82;;;;;;;16.22;59.83;100502.19;5053688;28;20459;-42
2022/08/01 04:51:22;;;;;;;4.82;1.52;;;;;;;16.23;59.12;100503.03;5047587;28;20049;-43
2022/08/01 04:53:50;;;;;;;4.80;1.00;;;;;;;16.24;58.99;100504.78;5061952;28;20037;-42
2022/08/01 04:56:20;;;;;;;2.88;0.82;;;;;;;16.24;59.39;100503.00;5060201;28;20053;-44
2022/08/01 04:58:47;;;;;;;;;;;;;;;16.06;59.28;100504.22;5049265;28;20056;-41
2022/08/01 05:01:13;;;;;;;3.08;1.02;;;;;;;16.22;59.25;100506.53;5055752;28;19977;-42
2022/08/01 05:03:40;;;;;;;7.05;1.33;;;;;;;16.26;59.95;100508.22;5045413;28;20053;-43
2022/08/01 05:06:07;;;;;;;3.53;1.13;;;;;;;16.25;59.42;100502.09;5061441;28;20059;-41
2022/08/01 05:08:35;;;;;;;5.45;1.20;;;;;;;16.26;59.81;100508.22;5062886;28;20052;-48
2022/08/01 05:11:03;;;;;;;5.18;0.88;;;;;;;16.27;60.17;100505.56;5060705;28;20114;-45
2022/08/01 05:13:30;;;;;;;3.00;1.13;;;;;;;16.29;59.90;100511.66;5052979;28;20045;-43
2022/08/01 05:15:57;;;;;;;3.47;1.58;;;;;;;16.32;59.66;100508.94;5065420;28;20582;-48
2022/08/01 05:18:25;;;;;;;7.68;1.10;;;;;;;16.36;59.40;100516.72;5060374;28;20077;-41
2022/08/01 05:20:54;;;;;;;4.35;1.20;;;;;;;16.38;59.51;100518.41;5062262;28;20098;-44
2022/08/01 05:23:21;;;;;;;3.22;1.00;;;;;;;16.39;59.83;100504.47;5060944;28;20048;-44
2022/08/01 05:26:08;;;;;;;4.28;0.75;;;;;;;16.38;59.48;100507.97;5058661;28;20133;-41
2022/08/01 05:28:35;;;;;;;5.88;1.40;;;;;;;16.39;59.93;100514.94;5059854;28;20060;-44
2022/08/01 05:31:02;;;;;;;3.28;1.30;;;;;;;16.40;60.27;100511.44;5056731;28;20051;-44
2022/08/01 05:33:29;;;;;;;7.20;1.00;;;;;;;16.40;59.14;100514.03;5059255;28;20061;-46
2022/08/01 05:35:56;;;;;;;3.80;1.30;;;;;;;16.41;59.60;100513.13;5050747;28;20049;-47
2022/08/01 05:38:22;;;;;;;6.70;1.20;;;;;;;16.42;60.08;100511.41;5066039;28;20485;-43
2022/08/01 05:40:49;;;;;;;3.78;0.93;;;;;;;16.43;59.88;100505.28;5063677;28;20101;-44
2022/08/01 05:43:16;;;;;;;4.22;1.75;;;;;;;16.42;59.43;100509.63;5064427;28;20110;-42
2022/08/01 05:45:44;;;;;;;1.98;1.15;;;;;;;16.39;59.51;100507.09;5056917;28;20190;-43
2022/08/01 05:48:10;;;;;;;5.38;1.17;;;;;;;16.38;59.53;100505.34;5055612;28;20052;-42
2022/08/01 05:50:37;;;;;;;3.90;1.48;;;;;;;16.38;59.86;100513.19;5066193;28;20049;-41
2022/08/01 05:53:04;;;;;;;5.15;1.20;;;;;;;16.41;59.39;100515.75;5057023;28;20056;-43
2022/08/01 05:55:30;;;;;;;4.22;1.10;;;;;;;16.42;59.21;100514.84;5067947;28;20158;-43
2022/08/01 05:57:57;;;;;;;3.88;1.10;;;;;;;16.45;59.50;100514.81;5058409;28;20479;-44
2022/08/01 06:00:24;;;;;;;3.03;0.90;;;;;;;16.50;59.49;100519.94;5055097;28;20049;-44
2022/08/01 06:02:50;;;;;;;4.22;1.27;;;;;;;16.54;59.71;100519.00;5057312;28;20106;-41
2022/08/01 06:05:17;;;;;;;6.20;1.23;;;;;;;16.58;59.44;100519.78;5064065;28;20048;-43
2022/08/01 06:07:44;;;;;;;3.78;1.17;;;;;;;16.61;59.89;100522.34;5060031;28;20574;-44
2022/08/01 06:10:11;;;;;;;7.18;1.67;;;;;;;16.65;59.55;100516.16;5066462;28;20045;-44
2022/08/01 06:12:37;;;;;;;5.30;0.98;;;;;;;16.69;59.86;100509.13;5053497;28;20754;-46
2022/08/01 06:15:05;;;;;;;4.88;1.25;;;;;;;16.73;59.39;100508.16;5053358;28;20110;-42
2022/08/01 06:17:32;;;;;;;6.32;1.60;;;;;;;16.77;58.85;100514.16;5053140;28;20378;-44
2022/08/01 06:19:59;;;;;;;2.13;1.50;;;;;;;16.78;60.12;100526.34;5070686;28;20037;-44
2022/08/01 06:22:26;;;;;;;5.38;1.65;;;;;;;16.79;59.97;100517.63;5070229;28;20063;-43
2022/08/01 06:24:53;;;;;;;3.67;1.10;;;;;;;16.82;59.24;100525.41;5064235;28;20622;-44
2022/08/01 06:27:20;;;;;;;4.68;1.10;;;;;;;16.85;59.49;100521.88;5054278;28;20101;-44
2022/08/01 06:29:48;;;;;;;3.13;1.00;;;;;;;16.89;59.09;100521.75;5055650;28;20374;-43
2022/08/01 06:32:19;;;;;;;5.70;1.15;;;;;;;16.92;59.24;100526.91;5043546;28;20068;-42
2022/08/01 06:34:54;;;;;;;4.28;1.00;;;;;;;16.99;59.33;100524.19;5031240;28;20523;-46
2022/08/01 06:37:21;;;;;;;5.93;0.98;;;;;;;17.00;59.13;100525.91;5048293;28;20071;-43
2022/08/01 06:39:49;;;;;;;3.40;1.20;;;;;;;17.02;59.12;100524.97;5068249;28;20079;-46
2022/08/01 06:42:16;;;;;;;5.28;1.35;;;;;;;17.07;59.37;100527.53;5069362;28;20044;-45
2022/08/01 06:44:43;;;;;;;4.35;1.65;;;;;;;17.13;59.38;100532.63;5051427;28;20094;-45
2022/08/01 06:47:09;;;;;;;1.85;0.68;;;;;;;17.17;58.99;100534.28;5063232;28;20052;-45
2022/08/01 06:49:36;;;;;;;6.20;1.13;;;;;;;17.18;59.02;100530.75;5067079;28;20076;-44
2022/08/01 06:52:03;;;;;;;4.65;1.10;;;;;;;17.24;58.74;100534.13;5052379;28;20045;-44
2022/08/01 06:54:31;;;;;;;5.35;1.95;;;;;;;17.31;59.19;100535.72;5062003;28;20133;-44
2022/08/01 06:56:57;;;;;;;5.63;1.23;;;;;;;17.40;58.44;100540.75;5068190;28;20049;-41
2022/08/01 06:59:24;;;;;;;5.03;1.33;;;;;;;17.47;58.61;100537.06;5065606;28;20049;-42
2022/08/01 07:01:51;;;;;;;4.07;1.27;;;;;;;17.54;57.93;100536.94;5057438;28;20056;-44
2022/08/01 07:04:17;;;;;;;3.45;0.82;;;;;;;17.57;57.77;100531.63;5065177;28;20048;-46
2022/08/01 07:06:44;;;;;;;4.05;1.05;;;;;;;17.64;57.58;100532.31;5068619;28;20048;-44
2022/08/01 07:09:11;;;;;;;2.03;0.85;;;;;;;17.70;57.45;100534.81;5061306;28;20052;-46
2022/08/01 07:11:40;;;;;;;4.15;1.00;;;;;;;17.81;57.79;100534.53;5060416;28;20052;-45
2022/08/01 07:14:07;;;;;;;9.40;1.15;;;;;;;17.91;57.29;100533.41;5031540;28;20049;-45
2022/08/01 07:16:34;;;;;;;2.95;1.13;;;;;;;17.99;57.30;100534.06;5062230;28;20053;-46
2022/08/01 07:19:00;;;;;;;5.43;0.60;;;;;;;18.09;56.69;100531.22;5069094;28;20488;-45
2022/08/01 07:21:27;;;;;;;6.72;0.77;;;;;;;18.23;56.99;100536.97;5063680;28;20094;-45
2022/08/01 07:24:06;;;;;;;3.33;1.00;;;;;;;18.38;56.51;100534.84;5067123;28;20734;-47
2022/08/01 07:26:42;;;;;;;2.00;0.70;;;;;;;18.55;56.66;100541.38;5061619;28;20542;-46
2022/08/01 07:29:22;;;;;;;3.20;0.88;;;;;;;18.66;56.42;100544.53;5053228;28;20696;-46
2022/08/01 07:31:49;;;;;;;4.18;0.88;;;;;;;18.80;56.02;100548.50;5065348;28;20052;-46
2022/08/01 07:34:16;;;;;;;4.35;0.73;;;;;;;18.90;55.04;100544.72;5061685;28;20122;-47
2022/08/01 07:36:42;;;;;;;2.67;1.27;;;;;;;18.97;55.74;100548.03;5065655;28;20075;-48
2022/08/01 07:39:09;;;;;;;5.53;1.30;;;;;;;19.00;55.36;100543.56;5065316;28;20048;-42
2022/08/01 07:41:36;;;;;;;4.05;0.75;;;;;;;19.06;55.36;100549.50;5056029;28;20067;-44
2022/08/01 07:44:22;;;;;;;4.32;1.45;;;;;;;19.15;54.89;100546.63;5063606;28;20076;-43
2022/08/01 07:46:53;;;;;;;2.08;1.05;;;;;;;19.25;54.32;100549.88;5058847;28;20413;-48
2022/08/01 07:49:21;;;;;;;4.22;0.70;;;;;;;19.29;54.10;100554.09;5056826;28;20103;-42
2022/08/01 07:51:48;;;;;;;1.90;0.68;;;;;;;19.38;54.39;100556.44;5061742;28;20075;-43
2022/08/01 07:54:29;;;;;;;3.35;1.17;;;;;;;19.52;53.88;100549.88;5069740;28;20050;-43
2022/08/01 07:56:59;;;;;;;3.30;0.98;;;;;;;19.56;54.04;100561.16;5062063;28;20048;-44
2022/08/01 07:59:26;;;;;;;1.45;1.08;;;;;;;19.63;53.39;100557.41;5052918;28;20048;-44
2022/08/01 08:01:52;;;;;;;2.63;0.70;;;;;;;19.66;52.60;100557.31;5067224;28;20447;-43
2022/08/01 08:04:19;;;;;;;4.50;0.93;;;;;;;19.64;52.87;100556.50;5067008;28;20102;-43
2022/08/01 08:06:47;;;;;;;3.40;1.17;;;;;;;19.62;52.75;100560.97;5067638;28;20045;-43
2022/08/01 08:09:15;;;;;;;3.78;1.02;;;;;;;19.63;52.63;100552.16;5033027;28;20052;-42
2022/08/01 08:11:43;;;;;;;3.15;0.90;;;;;;;19.63;52.17;100557.41;5052483;28;20044;-43
2022/08/01 08:14:14;;;;;;;3.83;0.60;;;;;;;19.66;52.39;100552.06;5033224;28;20428;-44
2022/08/01 08:16:42;;;;;;;4.60;0.60;;;;;;;19.68;52.09;100544.97;5067092;28;20048;-43
2022/08/01 08:19:09;;;;;;;5.05;1.35;;;;;;;19.75;51.96;100551.75;5069406;28;20427;-43
2022/08/01 08:21:37;;;;;;;2.28;0.75;;;;;;;19.78;51.62;100542.91;5046529;28;20389;-43
2022/08/01 08:24:20;;;;;;;3.17;0.77;;;;;;;19.80;51.12;100540.22;5058224;28;20052;-43
2022/08/01 08:26:56;;;;;;;4.30;0.75;;;;;;;19.87;51.45;100547.00;5057528;28;20566;-43
2022/08/01 08:29:24;;;;;;;4.82;1.17;;;;;;;19.94;51.40;100535.38;5041490;28;20067;-42
2022/08/01 08:31:53;;;;;;;2.20;0.73;;;;;;;20.07;50.50;100538.47;5061180;28;20396;-46
2022/08/01 08:34:19;;;;;;;4.18;1.67;;;;;;;20.22;50.46;100542.31;5041675;28;20044;-46
2022/08/01 08:36:48;;;;;;;1.27;0.55;;;;;;;20.43;49.96;100539.81;5056207;28;20052;-44
2022/08/01 08:39:16;;;;;;;5.90;0.93;;;;;;;20.74;50.14;100545.75;5044442;28;20045;-44
2022/08/01 08:41:46;;;;;;;4.45;0.75;;;;;;;20.88;49.34;100542.59;5055966;28;20048;-47
2022/08/01 08:44:16;;;;;;;5.05;0.90;;;;;;;20.96;49.03;100543.19;5037746;28;20045;-43
2022/08/01 08:46:45;;;;;;;2.55;0.40;;;;;;;21.22;48.83;100546.59;5042303;28;21042;-43
2022/08/01 08:49:17;;;;;;;1.95;0.70;;;;;;;21.53;48.59;100537.44;5064949;28;20048;-46
2022/08/01 08:51:48;;;;;;;4.88;0.73;;;;;;;21.92;47.81;100537.66;5060894;28;20048;-49
2022/08/01 08:54:16;;;;;;;2.65;0.65;;;;;;;22.32;47.68;100537.69;5063681;28;20041;-44
2022/08/01 08:56:43;;;;;;;3.85;1.33;;;;;;;22.74;47.27;100538.50;5031487;28;20053;-43
2022/08/01 08:59:13;;;;;;;4.35;1.00;;;;;;;23.24;47.33;100530.91;5061501;28;20456;-43
2022/08/01 09:01:41;;;;;;;4.18;0.80;;;;;;;23.66;44.79;100528.88;5066004;28;20044;-46
2022/08/01 09:04:08;;;;;;;4.53;0.80;;;;;;;23.83;44.17;100527.16;5058667;28;20045;-47
2022/08/01 09:06:35;;;;;;;2.33;0.88;;;;;;;24.10;44.73;100535.47;5047293;28;20528;-49
2022/08/01 09:09:03;;;;;;;1.73;0.60;;;;;;;24.51;44.52;100538.66;5063578;28;20049;-49
2022/08/01 09:11:30;;;;;;;2.30;1.10;;;;;;;24.80;42.47;100533.59;5040451;28;20495;-50
2022/08/01 09:14:22;;;;;;;2.55;0.55;;;;;;;25.04;42.00;100535.84;5045088;28;20040;-50
2022/08/01 09:17:00;;;;;;;3.53;0.70;;;;;;;25.22;41.90;100531.28;5047883;28;20405;-44
2022/08/01 09:19:35;;;;;;;2.30;1.38;;;;;;;25.49;41.62;100529.78;5043315;28;20412;-47
2022/08/01 09:22:09;;;;;;;2.65;1.17;;;;;;;25.76;41.55;100532.66;5043616;28;20135;-47
2022/08/01 09:24:37;;;;;;;2.95;0.95;;;;;;;26.05;41.63;100532.72;5056662;28;20048;-48
2022/08/01 09:27:23;;;;;;;2.75;1.10;;;;;;;26.24;39.74;100525.44;5056992;28;20528;-46
2022/08/01 09:29:52;;;;;;;1.20;0.70;;;;;;;26.39;40.24;100529.81;5048771;28;20101;-47
2022/08/01 09:32:27;;;;;;;2.85;0.68;;;;;;;26.64;40.42;100522.13;5064224;28;20730;-47
2022/08/01 09:35:22;;;;;;;1.80;1.15;;;;;;;26.87;40.24;100523.28;5055056;28;20048;-46
2022/08/01 09:40:53;;;;;;;4.38;2.33;;;;;;;26.81;39.31;100534.31;5049183;27;20735;-43
2022/08/01 09:43:23;;;;;;;2.85;2.00;;;;;;;26.69;38.63;100520.84;5024397;28;20072;-48
2022/08/01 09:45:50;;;;;;;;;;;;;;;26.57;39.39;100526.94;5008443;28;20055;-44
2022/08/01 09:48:20;;;;;;;2.45;1.90;;;;;;;26.61;39.28;100523.16;5024427;28;19971;-43
2022/08/01 09:50:53;;;;;;;2.28;1.40;;;;;;;26.59;39.10;100527.72;5021089;28;20050;-44
2022/08/01 09:53:21;;;;;;;2.15;1.67;;;;;;;26.60;38.53;100528.56;5024378;28;20753;-45
2022/08/01 09:56:09;;;;;;;2.45;1.95;;;;;;;26.55;38.29;100528.88;5024263;28;20532;-46
2022/08/01 09:58:57;;;;;;;3.40;2.25;;;;;;;26.59;38.31;100525.06;5020296;28;20052;-46
2022/08/01 10:01:28;;;;;;;2.63;2.17;;;;;;;26.68;38.67;100535.09;5019650;28;20050;-46
2022/08/01 10:04:08;;;;;;;2.38;1.98;;;;;;;26.78;37.97;100531.88;5024773;28;20045;-46
2022/08/01 10:06:37;;;;;;;3.75;1.77;;;;;;;26.91;38.10;100539.88;5023210;28;20046;-45
2022/08/01 10:09:04;;;;;;;2.45;2.15;;;;;;;27.04;37.15;100529.34;5022933;28;20038;-46
2022/08/01 10:11:32;;;;;;;2.65;1.90;;;;;;;27.08;37.62;100530.84;5020561;28;20049;-47
2022/08/01 10:14:02;;;;;;;4.05;1.63;;;;;;;27.20;37.85;100519.44;5024157;28;20053;-45
2022/08/01 10:16:30;;;;;;;3.35;2.33;;;;;;;27.46;37.91;100527.47;5023838;28;20042;-45
2022/08/01 10:18:57;;;;;;;3.85;2.05;;;;;;;27.67;36.69;100523.50;5024526;28;20097;-51
2022/08/01 10:21:27;;;;;;;1.75;1.65;;;;;;;27.68;36.57;100523.41;5024226;28;20413;-44
2022/08/01 10:24:14;;;;;;;2.10;1.88;;;;;;;27.65;36.29;100518.28;5023614;28;20136;-50
2022/08/01 10:26:48;;;;;;;2.58;2.25;;;;;;;27.69;36.55;100514.47;5021483;28;20046;-43
2022/08/01 10:29:18;;;;;;;3.15;2.88;;;;;;;27.91;36.59;100502.38;5024706;28;20063;-47
2022/08/01 10:32:06;;;;;;;2.88;2.35;;;;;;;28.13;37.13;100511.50;5021502;28;20908;-47
2022/08/01 10:34:34;;;;;;;2.35;1.90;;;;;;;28.32;35.61;100511.09;5022441;28;20076;-46
2022/08/01 10:37:01;;;;;;;4.40;2.33;;;;;;;28.51;36.44;100514.25;5017926;28;20133;-47
2022/08/01 10:39:32;;;;;;;3.25;2.45;;;;;;;28.78;36.88;100515.91;5022363;28;20034;-44
2022/08/01 10:42:00;;;;;;;2.53;2.10;;;;;;;28.93;35.09;100514.81;5023224;28;20111;-46
2022/08/01 10:44:29;;;;;;;3.40;2.35;;;;;;;29.03;34.99;100504.31;5023200;28;20191;-44
2022/08/01 10:47:03;;;;;;;2.95;2.47;;;;;;;29.20;35.43;100505.72;5015970;28;20042;-45
2022/08/01 10:49:47;;;;;;;2.60;2.25;;;;;;;29.30;36.13;100505.88;5022005;28;20046;-46
2022/08/01 10:52:15;;;;;;;2.83;2.63;;;;;;;29.46;36.06;100500.25;5007171;28;20054;-45
2022/08/01 10:54:45;;;;;;;2.97;2.60;;;;;;;29.58;35.08;100505.66;5005641;28;20057;-42
2022/08/01 10:57:18;;;;;;;1.80;1.42;;;;;;;29.58;34.52;100497.66;5006930;28;20504;-43
2022/08/01 10:59:51;;;;;;;3.08;2.80;;;;;;;29.75;35.32;100499.03;5011296;28;20065;-43
2022/08/01 11:02:30;;;;;;;2.35;2.15;;;;;;;29.93;35.08;100502.09;5003347;28;20109;-50
2022/08/01 11:05:02;;;;;;;3.10;2.53;;;;;;;30.12;34.52;100500.66;5011419;28;20046;-48
2022/08/01 11:07:45;;;;;;;2.65;1.95;;;;;;;30.20;34.30;100487.56;5011570;28;20077;-46
2022/08/01 11:12:52;;;;;;;1.30;0.77;;;;;;;30.35;34.53;100484.63;5064566;28;20376;-50
2022/08/01 11:15:24;;;;;;;2.13;1.42;;;;;;;30.47;34.55;100491.66;5023802;28;20041;-43
2022/08/01 11:17:57;;;;;;;2.90;1.08;;;;;;;30.46;33.95;100492.63;5025942;28;20394;-44
2022/08/01 11:20:33;;;;;;;1.48;1.10;;;;;;;30.56;33.73;100486.56;5018902;28;20386;-46
2022/08/01 11:28:23;;;;;;;1.45;0.95;;;;;;;29.96;32.34;100496.47;5057685;27;20391;-46
2022/08/01 11:41:35;;;;;;;1.40;1.08;;;;;;;30.29;34.76;100469.09;5050580;28;20931;-45
2022/08/01 11:44:13;;;;;;;1.65;1.10;;;;;;;30.51;34.06;100476.22;5041413;28;20056;-46
2022/08/01 11:49:28;;;;;;;1.23;0.73;;;;;;;30.65;33.65;100470.63;5051157;27;20390;-49
2022/08/01 11:52:02;;;;;;;1.83;1.65;;;;;;;30.72;34.32;100465.59;5018021;28;20604;-43
2022/08/01 11:54:32;;;;;;;2.53;1.25;;;;;;;30.76;33.01;100463.53;5004130;28;20133;-48
2022/08/01 11:57:07;;;;;;;3.03;1.02;;;;;;;30.76;34.19;100466.22;5014925;28;20095;-45
2022/08/01 11:59:39;;;;;;;3.58;1.27;;;;;;;30.72;33.38;100470.09;5017796;28;20081;-45
2022/08/01 12:07:34;;;;;;;1.85;1.00;;;;;;;30.63;33.79;100461.03;5051691;27;20401;-44
2022/08/01 12:10:08;;;;;;;1.80;1.10;;;;;;;30.63;33.83;100458.34;5016645;28;20097;-45
2022/08/01 12:12:36;;;;;;;3.88;1.35;;;;;;;30.67;34.05;100457.13;5013998;28;20054;-46
2022/08/01 12:15:08;;;;;;;2.00;1.08;;;;;;;30.61;33.98;100452.28;5013566;28;20050;-49
2022/08/01 12:17:39;;;;;;;4.03;1.13;;;;;;;30.51;33.89;100447.69;5017980;28;20065;-50
2022/08/01 12:20:16;;;;;;;2.30;1.58;;;;;;;30.48;34.46;100453.28;5019241;28;20042;-48
2022/08/01 12:22:43;;;;;;;3.35;1.48;;;;;;;30.46;34.04;100449.03;5023794;28;20077;-48